x

Yucatan Basin - 120 Nm Ese Of Cozumel, Mx (42056) Wave Buoy

10:50 - Tue 26th May 2015 All times are CDT. -5 hours from GMT.

  • Sig Wave height 3.9ft
  • Swell Direction
  • Peak Period 8s
  • Average Period 5s
  • Wind
    13mph, 16mph gusts
  • Sea Temp 83°f
  • Air Temp 82°f
  • Sea Pressure 1016.4mb
  •  Yucatan Basin - 120 Nm Ese Of Cozumel, Mx
  •  Yucatan Basin - 120 Nm Ese Of Cozumel, Mx

More Historic Weather Station data

Upgrade to MSW Pro to gain access to the past 30 days of data for over 8000 Wavebouys and Weather Stations around the globe.

Join Pro

Comparision Forecast

View Surf forecast
   
mar. 05/26 10:50 4ft 8s 5s 13 16 mph 1016.4mb 83f 82f
9:50 3.5ft 8s 5s 13 16 mph 1016.4mb 84f 82f
8:50 4ft 8s 5s 13
mph
1016mb 84f 83f
7:50 4ft 5s 5s 16 18 mph 1015.3mb 84f 83f
6:50 4ft 6s 5s 16 18 mph 1015mb 84f 83f
5:50 4ft 5s 5s 16 18 mph 1014.8mb 84f 83f
4:50 3.5ft 6s 5s 16 18 mph 1014.7mb 84f 83f
3:50 3.5ft 8s 5s 16
mph
1015.3mb 84f 83f
2:50 3.5ft 7s 5s 13 16 mph 1015.7mb 84f 83f
1:50 3.5ft 8s 5s 16 18 mph 1016.2mb 84f 83f
11:50 3.5ft 6s 5s 13 18 mph 1017.1mb 84f 83f
10:50 3.5ft 9s 5s 13 16 mph 1017.2mb 84f 83f
9:50 3.5ft 8s 5s 13 16 mph 1017mb 83f 83f
8:50 3.5ft 8s 5s 13 16 mph 1016.7mb 83f 83f
7:50 3.5ft 9s 5s 13 18 mph 1016.5mb 83f 83f
6:50 3.5ft 9s 5s 13 16 mph 1016.1mb 83f 83f
5:50 3.5ft 8s 5s 13 16 mph 1015.4mb 83f 82f
4:50 3ft 9s 5s 13 16 mph 1014.8mb 83f 82f
3:50 3.5ft 9s 5s 13 16 mph 1014.5mb 83f 82f
2:50 3.5ft 8s 5s 13 16 mph 1014.7mb 83f 83f
1:50 3.5ft 8s 5s 11 16 mph 1015.1mb 83f 83f
12:50 3.5ft 6s 5s 11 13 mph 1015.9mb 83f 83f
lun. 05/25 11:50 3.5ft 7s 5s 13 16 mph 1016.2mb 83f 83f
10:50 3.5ft 9s 5s 16 18 mph 1016.6mb 83f 83f
9:50 3.5ft 6s 5s 16 20 mph 1016.2mb 84f 83f
8:50 3.5ft 8s 5s 16 18 mph 1015.8mb 84f 83f
7:50 3.5ft 8s 5s 16 18 mph 1015.6mb 84f 83f
6:50 3.5ft 8s 5s 13 16 mph 1015.2mb 84f 83f
5:50 3.5ft 7s 5s 11 13 mph 1015.1mb 84f 84f
4:50 3.5ft 8s 5s 13 16 mph 1014.9mb 84f 83f
3:50 3.5ft 8s 5s 16 18 mph 1014.9mb 84f 83f
2:50 3.5ft 8s 5s 13 18 mph 1015.4mb 84f 83f
1:50 3.5ft 8s 5s 16 18 mph 1015.9mb 84f 83f
12:50 3.5ft 7s 5s 13 18 mph 1016.5mb 83f 83f
11:50 3.5ft 7s 5s 13 18 mph 1016.6mb 83f 83f
10:50 3.5ft 6s 5s 13 18 mph 1016.8mb 83f 83f
9:50 3.5ft 8s 5s 11 16 mph 1016.6mb 83f 83f
8:50 3.5ft 8s 5s 13 16 mph 1016.5mb 83f 83f
7:50 3.5ft 6s 5s 13 16 mph 1016.1mb 83f 83f
6:50 3.5ft 6s 5s 11 13 mph 1015.9mb 83f 82f
5:50 3.5ft 8s 5s 11 13 mph 1015.4mb 83f 82f
4:50 3.5ft 6s 5s 11 16 mph 1015.6mb 83f 82f
3:50 3.5ft 8s 5s 11 13 mph 1015.3mb 83f 82f
2:50 3.5ft 7s 5s 11 13 mph 1015.4mb 83f 83f
1:50 3.5ft 8s 5s 13 16 mph 1015.7mb 83f 83f
12:50 3.5ft 8s 5s 13 16 mph 1016.1mb 83f 83f
dim. 05/24 11:50 3.5ft 6s 5s 16 18 mph 1016.6mb 83f 83f
10:50 3ft 7s 5s 16 20 mph 1016.7mb 83f 83f
9:50 3ft 5s 5s 16 18 mph 1016.5mb 83f 82f
8:50 3.5ft 6s 5s 16 18 mph 1015.8mb 83f 83f
7:50 3.5ft 6s 4s 13 16 mph 1015.6mb 83f 83f
6:50 3.5ft 5s 4s 13 16 mph 1015.1mb 83f 83f
5:50 3.5ft 6s 4s 13 16 mph 1015.2mb 83f 83f
4:50 3.5ft 6s 4s 13 16 mph 1015mb 83f 83f
3:50 3.5ft 8s 4s 16 18 mph 1015.5mb 83f 83f
2:50 3.5ft 6s 4s 13 16 mph 1015.7mb 83f 83f
1:50 3.5ft 6s 4s 13 18 mph 1016.1mb 83f 83f
12:50 3ft 6s 4s 13 16 mph 1016.3mb 83f 83f
11:50 3.5ft 6s 4s 13 16 mph 1016.9mb 83f 83f
10:50 3ft 6s 4s 13 16 mph 1017.1mb 83f 83f
9:50 3.5ft 6s 4s 16 18 mph 1016.8mb 83f 83f
8:50 3ft 6s 4s 13 16 mph 1016.9mb 83f 83f
7:50 3ft 6s 4s 13 16 mph 1016.4mb 83f 83f
6:50 3ft 5s 4s 13 16 mph 1016.2mb 83f 82f
5:50 3ft 5s 4s 13 16 mph 1015.9mb 83f 82f
4:50 3ft 6s 4s 11 13 mph 1015.8mb 83f 82f
3:50 3ft 6s 4s 13 16 mph 1015.5mb 83f 82f
2:50 3ft 5s 4s 16 18 mph 1015.6mb 83f 82f
1:50 3ft 5s 4s 16 20 mph 1016mb 83f 82f
12:50 2.5ft 5s 4s 16 18 mph 1016.6mb 83f 83f
sam. 05/23 11:50 2.5ft 5s 4s 13 16 mph 1017mb 83f 83f
10:50 2.5ft 5s 4s 13 16 mph 1017.5mb 83f 83f
9:50 2.5ft 5s 4s 16 18 mph 1017.5mb 83f 83f
8:50 3ft 5s 4s 16 18 mph 1017mb 83f 83f
7:50 3ft 5s 4s 16 18 mph 1016.3mb 83f 83f
6:50 3ft 5s 4s 13 16 mph 1016.1mb 83f 83f
5:50 3ft 4s 4s 11 13 mph 1016.1mb 83f 83f
4:50 2.5ft 4s 4s 13 16 mph 1016.4mb 83f 83f
3:50 2.5ft 4s 4s 13 16 mph 1017.1mb 83f 83f
2:50 3ft 4s 4s 13 16 mph 1017.3mb 83f 83f
1:50 3ft 5s 4s 13 18 mph 1017.8mb 83f 83f
12:50 3ft 5s 4s 16 20 mph 1018.4mb 83f 83f
11:50 3ft 4s 4s 16 18 mph 1019mb 83f 83f
10:50 2.5ft 5s 4s 13 18 mph 1019.3mb 83f 83f
9:50 2.5ft 5s 4s 16 18 mph 1019.1mb 83f 83f
8:50 2.5ft 4s 4s 13 18 mph 1018.7mb 83f 83f
7:50 2.5ft 4s 4s 13 16 mph 1018.2mb 83f 83f
6:50 2.5ft 4s 4s 13 16 mph 1017.6mb 83f 83f
5:50 2.5ft 4s 4s 13 16 mph 1017.1mb 83f 82f
4:50 2ft 4s 4s 11 16 mph 1016.9mb 83f 82f